首页
METAR-TAF:

METAR-TAF

机场 :

本-古里安国际机场

特拉维夫 / 本·古里安, 以色列

纬度: 32-00N, 经度: 034-54E, 海拔: 40米

当前天气观测

该预报发布于9分钟前的12:20 UTC
风速10节,风向西北
温度 31°C
湿度 55%
气压 1008 hPa
能见度10公里或以上
1500米以下无云,无积雨云

METAR: LLBG 161220Z 31010KT CAVOK 31/21 Q1008 NOSIG

时间: 15:29 (12:29 UTC)

预报

该预报发布于1小时和25分钟前的11:04 UTC
预报有效从16日的 12点(UTC)到 17日的 12点(UTC)
风速10节,风向西
能见度10公里或以上
少量云层高于3500英尺
成为
从 16日的 16点(UTC)到 16日的 18点(UTC)
风速4节,风向多变
散云层高于2500英尺
短暂存在
从 17日的 00点(UTC)到 17日的 05点(UTC)
风速5节,风向
多云层高于2500英尺
成为
从 17日的 07点(UTC)到 17日的 09点(UTC)
风速10节,风向西
少量云层高于3000英尺

TAF: LLBG 161104Z 1612/1712 28010KT 9999 FEW035 BECMG 1616/1618 VRB04KT SCT025 TEMPO 1700/1705 17005KT BKN025 BECMG 1707/1709 27010KT FEW030 TX31/1612Z TN24/1703Z

超过4000个机场的气象观测和天气预报(METAR&TAF报告)。

可查询的气象台以黄色和红色小点在地图上表示。

将鼠标移到小点上方,可查看气象台名称。

然后点击查看天气观测和预报。

如需切换地图:点击带黑十字的绿色按钮放大地图;点击带横线的绿色按钮缩小地图;或者点击绿色箭头查看邻近地区的地图。


METAR-TAF: